Hampden, Canada
Current Conditions -  °F | °C
As of 6:00 PM on Wednesday 17 Dec 2014 (Local Time) from CYDF Reporting Station
Overcast Overcast  
Wind Chill: 22°   Ceiling: 2300
Heat Index: 28°   Visibility: 15mi
Dew Point: 21°   Wind: 6mph
Humidity: 74%   Direction: 70°ENE
Pressure: 30.12"   Gusts: NA
Location:  49.53°N, 56.87°W
Report Text: CYDF 172100Z 07005KT 15SM OVC023 M02/M06 A3012 RMK SC8 SLP201
Loading
Personal Weather Stations






























Interactive Weather Map New forecast layout! Learn more

10-Day Weather Forecast

Advertisements
Track Severe Weather on mobile